createdAt,value
2023-05-04T00:12:32.053Z,1019.5
2023-05-04T00:28:06.285Z,1019.4
2023-05-04T00:43:40.344Z,1019.3
2023-05-04T00:59:14.637Z,1019.2
2023-05-04T01:14:48.621Z,1019.2
2023-05-04T01:30:22.575Z,1019.2
2023-05-04T01:45:56.804Z,1019.3
2023-05-04T02:01:31.160Z,1019.3
2023-05-04T02:17:05.566Z,1019.2
2023-05-04T02:32:39.963Z,1019.2
2023-05-04T02:48:14.115Z,1019.2
2023-05-04T03:03:48.217Z,1019.2
2023-05-04T03:19:22.577Z,1019.3
2023-05-04T03:34:56.496Z,1019.4
2023-05-04T03:50:33.620Z,1019.3
2023-05-04T04:06:07.584Z,1019.3
2023-05-04T04:21:41.690Z,1019.2
2023-05-04T04:37:15.756Z,1019.2
2023-05-04T04:52:49.764Z,1019.1
2023-05-04T05:08:23.791Z,1019.1
2023-05-04T05:23:57.717Z,1018.9
2023-05-04T05:39:33.832Z,1018.7
2023-05-04T05:55:07.801Z,1018.7
2023-05-04T06:10:41.822Z,1018.6
2023-05-04T06:26:15.842Z,1018.4
2023-05-04T06:41:49.840Z,1018.2
2023-05-04T06:57:24.119Z,1017.9
2023-05-04T07:12:58.294Z,1017.9
2023-05-04T07:28:32.518Z,1017.7
2023-05-04T07:44:06.618Z,1017.5
2023-05-04T07:59:40.702Z,1017.2
2023-05-04T08:15:15.871Z,1017.1
2023-05-04T08:30:50.200Z,1016.9
2023-05-04T08:46:24.618Z,1016.8
2023-05-04T09:01:59.621Z,1016.5
2023-05-04T09:17:35.256Z,1016.4
2023-05-04T09:33:10.971Z,1016.3
2023-05-04T09:48:45.184Z,1016.1
2023-05-04T10:04:19.634Z,1015.7
2023-05-04T10:19:53.805Z,1015.6
2023-05-04T10:35:27.975Z,1015.3
2023-05-04T10:51:02.493Z,1015.1
2023-05-04T11:06:57.802Z,1014.9
2023-05-04T11:22:32.074Z,1014.7
2023-05-04T11:38:06.338Z,1014.5
2023-05-04T11:53:40.826Z,1014.5
2023-05-04T12:09:15.063Z,1014.3
2023-05-04T12:24:49.532Z,1014.2
2023-05-04T12:40:28.522Z,1014
2023-05-04T12:56:03.151Z,1013.8
2023-05-04T13:11:37.456Z,1013.5
2023-05-04T13:27:11.869Z,1013.3
2023-05-04T13:42:46.756Z,1013.1
2023-05-04T13:58:21.058Z,1013
2023-05-04T14:13:55.433Z,1012.9
2023-05-04T14:29:29.793Z,1012.7
2023-05-04T14:45:04.053Z,1012.3
2023-05-04T15:00:38.347Z,1012.2
2023-05-04T15:16:12.687Z,1012.1
2023-05-04T15:31:47.318Z,1011.8
2023-05-04T15:47:21.549Z,1011.7
2023-05-04T16:02:56.158Z,1011.7
2023-05-04T16:18:31.148Z,1011.6
2023-05-04T16:34:05.368Z,1011.5
2023-05-04T16:49:39.552Z,1011.3
2023-05-04T17:05:14.920Z,1011.3
2023-05-04T17:20:49.133Z,1011.4
2023-05-04T17:36:23.295Z,1011.5
2023-05-04T17:51:57.400Z,1011.4
2023-05-04T18:07:31.521Z,1011.5
2023-05-04T18:23:05.628Z,1011.6
2023-05-04T18:38:39.817Z,1011.8
2023-05-04T18:54:14.101Z,1012
2023-05-04T19:09:48.182Z,1012.1
2023-05-04T19:25:33.510Z,1012.2
2023-05-04T19:41:08.403Z,1012.3
2023-05-04T19:56:42.468Z,1012.2
2023-05-04T20:12:16.558Z,1012.2
2023-05-04T20:27:50.846Z,1012.3
2023-05-04T20:43:25.016Z,1012.3
2023-05-04T20:58:59.029Z,1012.3
2023-05-04T21:14:33.089Z,1012.3
2023-05-04T21:30:07.328Z,1012.2
2023-05-04T21:45:41.606Z,1012.1
2023-05-04T22:01:15.739Z,1012.1
2023-05-04T22:16:49.818Z,1012
2023-05-04T22:32:23.855Z,1012.1
2023-05-04T22:47:58.100Z,1012.2
2023-05-04T23:03:32.265Z,1012.3
2023-05-04T23:19:06.409Z,1012.3
2023-05-04T23:34:40.528Z,1012.3
2023-05-04T23:50:14.582Z,1012.2
